Time;durP1;ratioP1;P1;durP2;ratioP2;P2;SDS_P1;SDS_P2;PMS_P1;PMS_P2;Temp;Humidity;BMP_temperature;BMP_pressure;BME280_temperature;BME280_humidity;BME280_pressure;Samples;Min_cycle;Max_cycle;Signal;HPM_P1;HPM_P2
2021/05/24 00:02:41;;;;;;;13.27;7.10;;;;;;;11.54;65.67;99475.91;263858;1094;114657;-64
2021/05/24 00:21:44;;;;;;;14.45;8.18;;;;;;;11.47;66.64;99486.07;263851;1095;114836;-64
2021/05/24 00:26:49;;;;;;;16.18;8.50;;;;;;;11.48;65.97;99503.80;263907;1100;115158;-64
2021/05/24 00:32:04;;;;;;;14.13;8.18;;;;;;;11.47;65.69;99504.73;263850;1094;114722;-64
2021/05/24 00:37:14;;;;;;;14.87;8.53;;;;;;;11.44;65.99;99512.05;263848;1100;116999;-66
2021/05/24 00:42:45;;;;;;;17.65;9.58;;;;;;;11.39;65.99;99514.98;263834;1096;115487;-66
2021/05/24 00:48:29;;;;;;;20.25;10.13;;;;;;;11.41;66.33;99514.88;263790;1099;115089;-65
2021/05/24 00:54:14;;;;;;;16.37;8.97;;;;;;;11.36;66.52;99517.83;263719;1100;118947;-64
2021/05/24 00:59:18;;;;;;;18.43;9.68;;;;;;;11.29;66.03;99527.13;263553;1095;114824;-63
2021/05/24 01:04:44;;;;;;;17.08;9.55;;;;;;;11.28;66.49;99544.06;263883;1098;114739;-66
2021/05/24 01:10:29;;;;;;;17.80;10.10;;;;;;;11.18;66.32;99548.20;263865;1095;114353;-64
2021/05/24 01:41:23;;;;;;;20.33;10.90;;;;;;;10.95;66.49;99547.66;263866;1095;114991;-64
2021/05/24 01:46:39;;;;;;;20.60;10.93;;;;;;;10.91;67.00;99558.58;263463;1100;115280;-66
2021/05/24 01:52:50;;;;;;;18.67;10.23;;;;;;;10.88;66.94;99536.48;263835;1095;115510;-67
2021/05/24 01:58:37;;;;;;;17.08;9.75;;;;;;;10.88;66.64;99541.81;263861;1100;115358;-68
2021/05/24 02:03:54;;;;;;;19.43;10.63;;;;;;;10.91;66.71;99539.94;263029;1099;115301;-65
2021/05/24 02:09:21;;;;;;;17.00;10.47;;;;;;;10.91;67.14;99535.47;263905;1100;115310;-65
2021/05/24 02:22:04;;;;;;;14.58;10.13;;;;;;;10.79;66.26;99544.12;263882;1100;115174;-65
2021/05/24 02:27:18;;;;;;;16.98;10.35;;;;;;;10.77;67.05;99556.67;263838;1096;115321;-64
2021/05/24 02:32:23;;;;;;;16.25;9.85;;;;;;;10.76;66.71;99557.59;263848;1094;115347;-65
2021/05/24 02:37:36;;;;;;;15.33;9.93;;;;;;;10.79;66.89;99558.28;263844;1100;114939;-65
2021/05/24 02:43:19;;;;;;;14.25;9.33;;;;;;;10.82;66.84;99562.59;263846;1095;115343;-65
2021/05/24 02:48:50;;;;;;;18.37;9.80;;;;;;;10.80;66.62;99567.13;263860;1100;115811;-65
2021/05/24 02:54:20;;;;;;;20.35;10.65;;;;;;;10.74;66.45;99565.68;263794;1096;114857;-65
2021/05/24 02:59:48;;;;;;;18.35;10.73;;;;;;;10.62;66.16;99561.86;263862;1100;115083;-65
2021/05/24 03:05:05;;;;;;;20.25;10.70;;;;;;;10.49;66.66;99579.42;263732;1096;114828;-65
2021/05/24 03:10:25;;;;;;;18.35;10.60;;;;;;;10.39;66.48;99584.39;263909;1098;114652;-67
2021/05/24 03:15:36;;;;;;;15.57;9.23;;;;;;;10.35;66.33;99588.13;263812;1096;114706;-65
2021/05/24 03:27:21;;;;;;;15.93;10.13;;;;;;;10.34;67.06;99599.72;263852;1096;114961;-67
2021/05/24 03:33:05;;;;;;;18.60;10.03;;;;;;;10.32;66.80;99603.39;263867;1100;115633;-64
2021/05/24 03:38:52;;;;;;;17.80;10.08;;;;;;;10.30;67.09;99606.15;263811;1096;115627;-65
2021/05/24 03:44:06;;;;;;;17.50;9.93;;;;;;;10.29;67.18;99608.88;263890;1096;115198;-65
2021/05/24 03:49:51;;;;;;;16.90;9.57;;;;;;;10.34;67.55;99605.05;263848;1095;114636;-65
2021/05/24 03:55:21;;;;;;;18.57;10.37;;;;;;;10.46;67.49;99613.31;263819;1095;114713;-65
2021/05/24 04:01:21;;;;;;;21.48;11.23;;;;;;;10.57;67.89;99614.48;263882;1100;115039;-65
2021/05/24 04:06:55;;;;;;;17.97;10.03;;;;;;;10.65;67.46;99620.25;263871;1095;115429;-65
2021/05/24 04:13:06;;;;;;;15.37;9.80;;;;;;;10.73;67.86;99619.84;263890;1100;115439;-66
2021/05/24 04:18:42;;;;;;;17.85;9.30;;;;;;;10.80;67.50;99623.03;263809;1100;115270;-65
2021/05/24 04:23:53;;;;;;;15.98;8.18;;;;;;;10.91;67.80;99607.37;263862;1100;114477;-65
2021/05/24 04:29:24;;;;;;;16.95;9.00;;;;;;;11.07;67.96;99610.92;263879;1095;114977;-66
2021/05/24 04:34:55;;;;;;;15.83;9.03;;;;;;;11.27;67.86;99611.59;263454;1100;114758;-65
2021/05/24 04:40:52;;;;;;;16.83;9.40;;;;;;;11.45;68.21;99607.92;263835;1096;115905;-67
2021/05/24 04:46:22;;;;;;;18.20;9.17;;;;;;;11.66;67.67;99596.98;263838;1096;115002;-64
2021/05/24 04:51:53;;;;;;;16.10;9.08;;;;;;;11.77;68.13;99602.55;263845;1100;115108;-67
2021/05/24 04:57:53;;;;;;;16.98;8.85;;;;;;;11.88;67.90;99623.28;263848;1094;115022;-67
2021/05/24 05:22:52;;;;;;;13.35;6.33;;;;;;;12.50;67.47;99648.94;263926;1096;114574;-65
2021/05/24 05:28:23;;;;;;;8.53;5.40;;;;;;;12.52;66.63;99655.03;263638;1100;115072;-66
2021/05/24 05:33:52;;;;;;;13.53;6.63;;;;;;;12.57;66.49;99659.22;263867;1098;114854;-65
2021/05/24 05:39:23;;;;;;;11.73;6.10;;;;;;;12.68;66.49;99657.64;263845;1096;114779;-67
2021/05/24 05:46:05;;;;;;;10.70;5.53;;;;;;;12.79;66.79;99654.31;263512;1100;114931;-65
2021/05/24 05:52:22;;;;;;;9.93;5.18;;;;;;;13.03;66.03;99654.60;263744;1096;114857;-66
2021/05/24 05:57:51;;;;;;;8.68;5.13;;;;;;;13.23;65.92;99653.36;263631;1098;114479;-65
2021/05/24 06:03:21;;;;;;;10.58;5.40;;;;;;;13.39;65.85;99654.14;263683;1095;115556;-65
2021/05/24 06:08:53;;;;;;;8.83;5.47;;;;;;;13.46;66.11;99665.31;263887;1100;115416;-66
2021/05/24 06:14:51;;;;;;;12.43;6.00;;;;;;;13.45;65.64;99656.44;263798;1097;114597;-65
2021/05/24 06:19:56;;;;;;;9.78;4.68;;;;;;;13.56;65.66;99649.53;263809;1095;114691;-65
2021/05/24 06:25:25;;;;;;;9.28;3.65;;;;;;;13.65;65.25;99662.30;263876;1100;114906;-65
2021/05/24 06:31:42;;;;;;;9.93;4.10;;;;;;;13.85;64.96;99655.65;263822;1096;114961;-67
2021/05/24 06:37:12;;;;;;;10.80;3.77;;;;;;;14.04;65.24;99634.75;263885;1099;114262;-64
2021/05/24 06:42:54;;;;;;;9.13;4.15;;;;;;;14.24;65.14;99654.83;263823;1095;115678;-64
2021/05/24 06:48:40;;;;;;;8.63;3.90;;;;;;;14.39;64.33;99663.63;263872;1100;114890;-64
2021/05/24 06:54:55;;;;;;;5.78;2.10;;;;;;;14.51;63.70;99670.03;263810;1095;114405;-66
2021/05/24 07:00:12;;;;;;;9.90;2.83;;;;;;;14.60;63.00;99655.98;263896;1100;114177;-67
2021/05/24 07:06:11;;;;;;;7.93;2.80;;;;;;;14.67;62.78;99657.27;263820;1096;117940;-65
2021/05/24 07:12:26;;;;;;;6.95;2.53;;;;;;;14.76;62.93;99653.12;263828;1096;114634;-65
2021/05/24 07:18:06;;;;;;;5.23;2.50;;;;;;;14.89;62.90;99654.83;263890;1100;114944;-65
2021/05/24 07:23:23;;;;;;;5.60;2.18;;;;;;;15.04;62.52;99646.67;263871;1095;116218;-65
2021/05/24 07:28:28;;;;;;;5.38;2.20;;;;;;;15.14;62.51;99639.69;263861;1098;114854;-66
2021/05/24 07:33:53;;;;;;;6.43;2.10;;;;;;;15.22;62.44;99656.11;263825;1096;114905;-65
2021/05/24 07:39:54;;;;;;;3.70;1.80;;;;;;;15.31;62.14;99641.16;263313;1100;114482;-65
2021/05/24 07:45:23;;;;;;;3.75;1.70;;;;;;;15.46;62.21;99658.00;263887;1096;114352;-64
2021/05/24 07:51:09;;;;;;;8.30;1.83;;;;;;;15.57;61.89;99641.97;263880;1099;114440;-65
2021/05/24 07:57:39;;;;;;;4.97;1.97;;;;;;;15.64;61.15;99629.81;263862;1100;114726;-65
2021/05/24 08:03:38;;;;;;;3.50;1.77;;;;;;;15.67;60.75;99628.77;263854;1095;114706;-65
2021/05/24 08:09:54;;;;;;;4.73;1.80;;;;;;;15.81;60.94;99618.72;263849;1098;114897;-67
2021/05/24 08:15:39;;;;;;;4.20;1.68;;;;;;;15.89;60.33;99602.03;263874;1096;114607;-65
2021/05/24 08:28:39;;;;;;;3.53;1.50;;;;;;;15.98;59.46;99622.83;263878;1098;115021;-65
2021/05/24 08:41:23;;;;;;;5.50;1.63;;;;;;;16.22;58.93;99611.20;263777;1100;114967;-65
2021/05/24 08:47:52;;;;;;;3.53;1.65;;;;;;;16.34;59.16;99599.53;263806;1095;114914;-67
2021/05/24 08:53:37;;;;;;;3.53;1.00;;;;;;;16.40;58.47;99590.13;263745;1100;114537;-66
2021/05/24 08:59:53;;;;;;;4.90;1.50;;;;;;;16.45;58.12;99586.13;263796;1100;115125;-67
2021/05/24 09:06:23;;;;;;;2.77;1.33;;;;;;;16.50;57.71;99580.38;263837;1096;114604;-66
2021/05/24 09:12:21;;;;;;;3.60;1.30;;;;;;;16.59;57.49;99566.23;263796;1098;114284;-65
2021/05/24 09:18:31;;;;;;;6.18;2.58;;;;;;;16.62;57.67;99557.08;263835;1095;115532;-66
2021/05/24 09:23:50;;;;;;;3.97;1.73;;;;;;;16.70;57.67;99570.76;263133;1102;114742;-67
2021/05/24 09:29:24;;;;;;;3.18;1.43;;;;;;;16.77;57.38;99561.27;263407;1096;115068;-67
2021/05/24 09:35:19;;;;;;;4.77;1.43;;;;;;;16.95;57.37;99553.55;263294;1101;115036;-66
2021/05/24 09:40:36;;;;;;;9.93;1.80;;;;;;;17.08;57.40;99546.22;263252;1097;115134;-66
2021/05/24 09:46:50;;;;;;;2.90;1.10;;;;;;;17.32;57.46;99534.44;263302;1096;114472;-66
2021/05/24 09:52:36;;;;;;;4.67;1.40;;;;;;;17.40;56.65;99540.06;263229;1101;114978;-66
2021/05/24 09:58:22;;;;;;;5.20;1.50;;;;;;;17.45;56.36;99521.69;263878;1095;115242;-68
2021/05/24 10:03:49;;;;;;;4.20;1.50;;;;;;;17.47;55.75;99498.21;263919;1100;114981;-67
2021/05/24 10:08:55;;;;;;;5.63;1.17;;;;;;;17.51;55.62;99502.34;263810;1096;114664;-68
2021/05/24 10:14:50;;;;;;;2.35;1.23;;;;;;;17.54;55.89;99485.95;263846;1100;114689;-65
2021/05/24 10:19:55;;;;;;;3.97;1.70;;;;;;;17.69;55.93;99481.95;263839;1095;114386;-66
2021/05/24 10:25:07;;;;;;;5.90;1.47;;;;;;;17.80;55.61;99486.48;263882;1100;114377;-68
2021/05/24 10:31:04;;;;;;;3.80;1.60;;;;;;;17.86;55.16;99479.70;263789;1096;115095;-66
2021/05/24 10:36:35;;;;;;;2.50;1.63;;;;;;;17.97;54.88;99476.97;263841;1100;115016;-66
2021/05/24 10:42:09;;;;;;;6.10;2.28;;;;;;;18.02;54.55;99461.25;263830;1095;115191;-66
2021/05/24 10:48:05;;;;;;;4.80;1.53;;;;;;;18.12;54.64;99467.55;263834;1096;114805;-66
2021/05/24 10:54:06;;;;;;;3.60;1.40;;;;;;;18.27;54.38;99461.81;263877;1100;114689;-66
2021/05/24 10:59:51;;;;;;;4.83;1.90;;;;;;;18.35;54.16;99467.41;263885;1095;114688;-67
2021/05/24 11:06:23;;;;;;;4.00;1.40;;;;;;;18.54;54.30;99466.63;263851;1099;114677;-68
2021/05/24 11:12:35;;;;;;;2.78;1.30;;;;;;;18.72;54.07;99451.56;263848;1095;114600;-67
2021/05/24 11:19:11;;;;;;;2.23;1.20;;;;;;;18.88;53.62;99434.84;263843;1095;114665;-66
2021/05/24 11:24:36;;;;;;;2.60;1.23;;;;;;;19.02;53.35;99439.87;263778;1101;114629;-68
2021/05/24 11:30:32;;;;;;;2.97;1.30;;;;;;;19.30;52.81;99432.80;263493;1096;114904;-67
2021/05/24 11:35:52;;;;;;;5.07;1.57;;;;;;;19.63;53.21;99419.88;263741;1101;114535;-67
2021/05/24 11:41:19;;;;;;;4.88;1.78;;;;;;;19.82;52.91;99408.20;263740;1096;114741;-66
2021/05/24 11:47:01;;;;;;;1.83;1.03;;;;;;;19.98;52.08;99399.51;263652;1096;114554;-67
2021/05/24 12:35:50;;;;;;;4.00;1.20;;;;;;;20.54;50.21;99339.95;262745;1098;188223;-64
2021/05/24 12:41:40;;;;;;;4.25;1.40;;;;;;;20.90;50.16;99328.34;262875;1102;114508;-63
2021/05/24 12:54:26;;;;;;;1.85;1.15;;;;;;;21.22;49.85;99335.91;263129;1098;114603;-65
2021/05/24 13:00:11;;;;;;;6.88;1.65;;;;;;;21.34;49.42;99313.04;263161;1103;114145;-65
2021/05/24 13:05:55;;;;;;;3.33;1.63;;;;;;;21.83;49.96;99288.13;263127;1099;115581;-65
2021/05/24 13:11:40;;;;;;;3.25;1.03;;;;;;;21.97;49.39;99285.66;262605;1104;114680;-66
2021/05/24 13:17:50;;;;;;;1.70;1.20;;;;;;;22.13;48.82;99271.34;263139;1099;114550;-63
2021/05/24 13:29:51;;;;;;;2.98;1.40;;;;;;;22.59;47.74;99269.14;263108;1099;114497;-64
2021/05/24 13:36:15;;;;;;;2.48;1.28;;;;;;;22.86;47.80;99259.86;263153;1099;114905;-64
2021/05/24 13:41:37;;;;;;;4.57;1.37;;;;;;;23.14;47.43;99240.55;263128;1104;115481;-65
2021/05/24 13:47:06;;;;;;;5.30;1.20;;;;;;;23.43;47.16;99225.55;263135;1098;114806;-65
2021/05/24 13:52:35;;;;;;;3.45;1.35;;;;;;;23.64;46.00;99227.70;263081;1102;114173;-66
2021/05/24 13:58:06;;;;;;;2.30;1.10;;;;;;;23.88;46.12;99237.68;262677;1099;114363;-65
2021/05/24 14:03:49;;;;;;;3.90;1.50;;;;;;;24.05;45.52;99223.87;263113;1104;115186;-66
2021/05/24 14:09:06;;;;;;;7.27;1.40;;;;;;;24.13;45.33;99224.84;262735;1099;114601;-66
2021/05/24 14:14:52;;;;;;;2.53;1.00;;;;;;;24.03;44.61;99209.59;263189;1104;114109;-65
2021/05/24 14:20:10;;;;;;;3.63;1.10;;;;;;;23.82;43.90;99191.17;263166;1100;114658;-65
2021/05/24 14:25:23;;;;;;;5.15;1.60;;;;;;;23.54;43.90;99190.73;262852;1104;115319;-65
2021/05/24 14:30:58;;;;;;;3.13;1.15;;;;;;;23.25;43.62;99191.30;263139;1099;113967;-63
2021/05/24 14:36:55;;;;;;;9.90;1.05;;;;;;;23.06;43.28;99202.52;263208;1104;114841;-65
2021/05/24 14:47:39;;;;;;;3.70;1.00;;;;;;;22.54;43.55;99191.98;262560;1100;114674;-65
2021/05/24 15:08:08;;;;;;;2.83;1.00;;;;;;;21.69;43.71;99164.97;262811;1100;114609;-65
2021/05/24 15:14:26;;;;;;;5.13;0.90;;;;;;;21.46;43.52;99153.85;263169;1101;117304;-65
2021/05/24 15:20:42;;;;;;;2.50;0.90;;;;;;;21.26;43.97;99151.38;263154;1099;114410;-65
2021/05/24 15:26:01;;;;;;;0.70;0.57;;;;;;;21.14;43.60;99135.56;263121;1104;114569;-66
2021/05/24 15:32:05;;;;;;;1.93;0.77;;;;;;;21.00;44.00;99129.72;262904;1099;114499;-64
2021/05/24 15:44:19;;;;;;;1.83;0.90;;;;;;;20.76;44.21;99106.06;262970;1100;114495;-66
2021/05/24 15:50:32;;;;;;;1.43;0.97;;;;;;;20.66;44.19;99096.36;262856;1099;114604;-65
2021/05/24 15:56:59;;;;;;;4.50;1.10;;;;;;;20.55;43.93;99100.17;263134;1101;114280;-64
2021/05/24 16:03:17;;;;;;;2.73;0.80;;;;;;;20.47;44.32;99095.49;263035;1100;114034;-65
2021/05/24 16:09:15;;;;;;;4.40;1.27;;;;;;;20.32;44.15;99087.10;262265;1106;115133;-64
2021/05/24 16:15:31;;;;;;;3.90;1.33;;;;;;;20.22;44.10;99080.94;262947;1100;114450;-64
2021/05/24 16:21:21;;;;;;;2.90;1.23;;;;;;;20.11;44.47;99075.78;263197;1103;114503;-64
2021/05/24 16:26:47;;;;;;;2.53;1.10;;;;;;;20.04;44.59;99078.25;263147;1100;114529;-66
2021/05/24 16:32:16;;;;;;;5.70;1.40;;;;;;;19.96;44.54;99069.20;263154;1104;114554;-65
2021/05/24 16:43:50;;;;;;;4.73;1.30;;;;;;;19.81;44.88;99063.50;263178;1099;115112;-64
2021/05/24 16:55:49;;;;;;;5.45;1.78;;;;;;;19.67;45.05;99042.44;263132;1099;114746;-65
2021/05/24 17:01:18;;;;;;;20.25;13.98;;;;;;;19.62;45.15;99034.73;263194;1104;115617;-64
2021/05/24 17:07:19;;;;;;;17.10;8.38;;;;;;;19.58;45.42;99023.39;263044;1100;114728;-64
2021/05/24 17:12:48;;;;;;;3.57;1.90;;;;;;;19.52;45.46;99013.20;262866;1104;114980;-64
2021/05/24 17:18:34;;;;;;;6.60;3.60;;;;;;;19.49;45.49;98996.47;262862;1100;114643;-66
2021/05/24 17:24:53;;;;;;;3.48;2.50;;;;;;;19.44;45.59;98990.69;263191;1099;114563;-63
2021/05/24 17:30:39;;;;;;;7.93;1.90;;;;;;;19.37;45.47;98982.36;263200;1104;114852;-66
2021/05/24 17:36:41;;;;;;;5.63;2.00;;;;;;;19.33;45.64;98965.63;263049;1098;114644;-67
2021/05/24 17:43:31;;;;;;;4.43;2.00;;;;;;;19.26;45.75;98960.96;263131;1104;114228;-67
2021/05/24 17:49:25;;;;;;;6.77;2.57;;;;;;;19.17;45.61;98964.59;263103;1104;114898;-67
2021/05/24 17:55:25;;;;;;;7.93;2.40;;;;;;;19.07;45.61;98970.05;262840;1099;114645;-66
2021/05/24 18:00:56;;;;;;;6.23;2.50;;;;;;;18.99;45.74;98978.90;263179;1102;114715;-67
2021/05/24 18:06:25;;;;;;;7.03;2.40;;;;;;;18.92;46.31;98956.23;263235;1099;114978;-67
2021/05/24 18:12:25;;;;;;;7.67;2.37;;;;;;;18.87;46.44;98942.33;263132;1104;114253;-66
2021/05/24 18:23:52;;;;;;;5.78;2.68;;;;;;;18.67;46.94;98950.47;263199;1101;114459;-66
2021/05/24 18:29:33;;;;;;;7.73;2.78;;;;;;;18.59;46.70;98966.55;263200;1104;114434;-66
2021/05/24 18:35:05;;;;;;;;;;;;;;;18.52;46.64;98962.75;263243;1104;115358;-66
2021/05/24 18:40:51;;;;;;;9.37;3.60;;;;;;;18.39;46.91;98948.75;263180;1100;117567;-68
2021/05/24 18:46:20;;;;;;;7.38;3.10;;;;;;;18.34;47.15;98946.52;263105;1099;114161;-67
2021/05/24 18:51:33;;;;;;;8.35;3.40;;;;;;;18.28;47.21;98938.16;263123;1104;114822;-69
2021/05/24 18:57:19;;;;;;;12.28;4.18;;;;;;;18.18;47.50;98936.34;263098;1100;114548;-69
2021/05/24 19:02:24;;;;;;;8.43;4.30;;;;;;;18.09;47.27;98939.05;263168;1104;115329;-68
2021/05/24 19:07:53;;;;;;;15.27;8.27;;;;;;;18.00;47.34;98954.22;262970;1100;114784;-68
2021/05/24 19:13:20;;;;;;;21.23;11.88;;;;;;;17.91;47.34;98965.88;263156;1103;114959;-67
2021/05/24 19:18:34;;;;;;;11.03;5.77;;;;;;;17.84;47.24;98975.52;263107;1099;115074;-68
2021/05/24 19:30:25;;;;;;;8.13;4.05;;;;;;;17.73;46.95;98949.58;263177;1098;115146;-65
2021/05/24 20:25:07;;;;;;;8.87;3.67;;;;;;;17.49;47.33;98941.91;263125;1104;114887;-66
2021/05/24 20:30:17;;;;;;;9.05;3.90;;;;;;;17.46;47.56;98942.22;263173;1098;114990;-64
2021/05/24 20:35:48;;;;;;;7.23;4.38;;;;;;;17.40;48.47;98929.33;262749;1104;114793;-66
2021/05/24 20:41:30;;;;;;;9.80;4.30;;;;;;;17.35;47.98;98918.97;263137;1099;114856;-64
2021/05/24 20:47:18;;;;;;;7.38;4.18;;;;;;;17.37;47.89;98932.30;263158;1104;115048;-63
2021/05/24 20:53:17;;;;;;;9.18;5.15;;;;;;;17.37;47.92;98910.77;263171;1098;114723;-67
2021/05/24 20:58:51;;;;;;;9.33;4.45;;;;;;;17.33;48.33;98918.28;263226;1101;114674;-65
2021/05/24 21:04:49;;;;;;;8.00;4.30;;;;;;;17.28;48.93;98939.34;263144;1099;115348;-66
2021/05/24 21:10:23;;;;;;;9.33;4.65;;;;;;;17.21;48.91;98939.06;263138;1103;115006;-65
2021/05/24 21:16:35;;;;;;;12.28;5.55;;;;;;;17.16;48.98;98935.11;263179;1099;114227;-65
2021/05/24 21:21:50;;;;;;;11.80;5.80;;;;;;;17.11;49.54;98929.28;263186;1100;114991;-65
2021/05/24 21:27:13;;;;;;;13.55;6.10;;;;;;;17.07;50.07;98923.34;263194;1103;114620;-64
2021/05/24 21:32:42;;;;;;;15.03;5.93;;;;;;;17.01;50.42;98921.20;263149;1100;114353;-67
2021/05/24 21:38:29;;;;;;;12.23;5.00;;;;;;;16.95;50.68;98887.67;263116;1102;115339;-67
2021/05/24 21:44:15;;;;;;;11.18;4.23;;;;;;;16.89;50.52;98903.50;263206;1099;115378;-66
2021/05/24 21:49:46;;;;;;;7.78;4.10;;;;;;;16.84;50.92;98895.84;263208;1104;114839;-65
2021/05/24 21:55:28;;;;;;;8.23;4.50;;;;;;;16.77;51.01;98887.48;263138;1098;114117;-66
2021/05/24 22:00:47;;;;;;;8.48;4.48;;;;;;;16.72;51.25;98862.84;263192;1104;114846;-65
2021/05/24 22:06:30;;;;;;;8.37;4.77;;;;;;;16.66;51.49;98879.50;261163;1100;114676;-66
2021/05/24 22:13:02;;;;;;;10.98;4.38;;;;;;;16.65;51.61;98893.94;261158;1102;114575;-66
2021/05/24 22:19:14;;;;;;;10.40;4.50;;;;;;;16.60;51.85;98901.55;260946;1100;115307;-68
2021/05/24 22:25:15;;;;;;;10.38;5.00;;;;;;;16.47;52.72;98857.95;260849;1100;114838;-66
2021/05/24 22:30:59;;;;;;;9.77;4.87;;;;;;;16.31;53.40;98843.22;260905;1104;114802;-64
2021/05/24 22:37:12;;;;;;;12.60;5.37;;;;;;;16.09;53.84;98830.83;260685;1105;114154;-66
2021/05/24 22:55:41;;;;;;;;;;;;;;;15.83;55.67;98829.60;263151;1100;114797;-67
2021/05/24 23:01:01;;;;;;;10.33;4.90;;;;;;;15.79;55.41;98855.85;262871;1104;103636;-66
2021/05/24 23:06:57;;;;;;;11.80;5.10;;;;;;;15.69;56.04;98852.27;263090;1099;114987;-67
2021/05/24 23:12:58;;;;;;;9.90;5.63;;;;;;;15.61;56.61;98850.19;263128;1100;114682;-66
2021/05/24 23:18:31;;;;;;;11.80;5.80;;;;;;;15.52;57.03;98840.27;262980;1099;114214;-66
2021/05/24 23:24:30;;;;;;;15.73;7.13;;;;;;;15.44;57.18;98826.64;263134;1104;115084;-67
2021/05/24 23:30:43;;;;;;;13.73;7.23;;;;;;;15.35;57.39;98824.73;263117;1099;115287;-67
2021/05/24 23:35:48;;;;;;;17.07;7.17;;;;;;;15.33;57.70;98791.86;263138;1100;114937;-67
2021/05/24 23:41:16;;;;;;;19.10;7.45;;;;;;;15.34;58.27;98775.63;263126;1104;114679;-68
2021/05/24 23:46:48;;;;;;;21.83;9.20;;;;;;;15.42;58.59;98758.02;263060;1099;114407;-64
2021/05/24 23:52:16;;;;;;;17.83;7.67;;;;;;;15.53;58.43;98757.97;262817;1104;115365;-67
2021/05/24 23:58:05;;;;;;;18.47;7.60;;;;;;;15.55;58.42;98721.95;262929;1099;115858;-67
